Terminal Aerodrome Forecast
Issued by NWS

Home | Current Version | Previous Version | Text Only | Print | Product List | Glossary On
Versions: 1 2 3 4 5 6 7 8 9 10 11 12 13
536
FTUS41 KBGM 201720
TAFITH
TAF
KITH 201720Z 2018/2118 32010G16KT P6SM SKC
     FM202200 31003KT P6SM SKC
     FM211600 19004KT P6SM SKC=

USA.gov is the U.S. government's official web portal to all federal, state and local government web resources and services.